Gassetts, Vermont
Current Conditions -  °F | °C
As of 8:54 PM on Wednesday 22 Oct 2014 (Local Time) from KVSF Reporting Station
Overcast Overcast  
Wind Chill: 44°   Ceiling: 2000
Heat Index: 47°   Visibility: 10mi
Dew Point: 44°   Wind: 7mph
Humidity: 90%   Direction: NA
Pressure: 30.01"   Gusts: 16mph
Location:  43.3606°N, 72.5739°W
Report Text: KVSF 230054Z AUTO VRB06G14KT 10SM OVC020 08/07 A3001 RMK AO2 RAE42 SLP166 P0003 T00830067
Loading
Personal Weather Stations






























Interactive Weather Map
Tropical Storm Tracking
New forecast layout! Learn more

10-Day Weather Forecast

Advertisements
Track Severe Weather on mobile